In Rescue
 
Open Full Screen Window  High Contrast Mode
Wind Gusting 14 knots
07
June 22, 2024 10:01 PM EDT
Weather Information
Wind Direction
  200 °
Wind Speed
  07 kt (8 mph)
Wind Gust
  14 kt (16 mph)
Altimeter
29.76 in
Visibility
10 SM
Temperature
27° C
81° F
Dewpoint
18° C
64° F
Humidity
58%
Sky Condition
Clear
VFR

METAR KHAI 230201Z AUTO 20007G14KT 10SM CLR 27/18 A2976 RMK AO2 T02720176

FAA Disclaimer: The data displayed is for advisory purposes only and is not to be used for flight planning or operations.